首页
METAR-TAF:

METAR-TAF

机场 :

尼亞加拉瀑布城, 紐約州, 美国

纬度: 43-06-26N, 经度: 078-56-43W, 海拔: 180米

当前天气观测

该预报发布于13分钟前的06:53 UTC
风速7节,风向南转西南
温度 22°C
湿度 94%
气压 1013 hPa
能見度: 16.1公里
少量云层高于11000英尺

METAR: KIAG 170653Z AUTO 21007KT 10SM FEW110 22/21 A2991 RMK AO2 RAE0559B29E45 SLP122 P0000 T02170206

时间: 03:06 (07:06 UTC)

预报

该预报发布于1小时和31分钟前的05:35 UTC
预报有效从17日的 06点(UTC)到 18日的 06点(UTC)
风速8节,风向西南
能見度: 10公里
阴天层高于8000英尺
小阵雨
短暂存在
从 17日的 08点(UTC)到 17日的 10点(UTC)
能見度: 6.4公里
阴天层高于2500英尺
小阵雨, 轻雾
从 17日的 1100点(UTC)
风速5节,风向南转西南
能見度: 9.7公里
阴天层高于3000英尺
小阵雨, 轻雾
从 17日的 1400点(UTC)
风速节,风向
能見度: 9.7公里
阴天层高于1500英尺
小阵雨
短暂存在
从 17日的 14点(UTC)到 17日的 15点(UTC)
能見度: 6.4公里
阴天层高于900英尺
小阵雨, 轻雾
从 17日的 1500点(UTC)
风速节,风向
能見度: 9.7公里
阴天层高于2000英尺
轻雾, 附近有阵雨
从 17日的 2000点(UTC)
风速3节,风向多变
能見度: 10公里
多云层高于3500英尺

TAF: KIAG 170535Z 1706/1806 23008KT P6SM -SHRA OVC080 TEMPO 1708/1710 4SM -SHRA BR OVC025 FM171100 20005KT 6SM -SHRA BR OVC030 FM171400 00000KT 6SM -SHRA OVC015 TEMPO 1714/1715 4SM -SHRA BR OVC009 FM171500 00000KT 6SM BR VCSH OVC020 FM172000 VRB03KT P6SM BKN035

超过4000个机场的气象观测和天气预报(METAR&TAF报告)。

可查询的气象台以黄色和红色小点在地图上表示。

将鼠标移到小点上方,可查看气象台名称。

然后点击查看天气观测和预报。

如需切换地图:点击带黑十字的绿色按钮放大地图;点击带横线的绿色按钮缩小地图;或者点击绿色箭头查看邻近地区的地图。


METAR-TAF: